sensor_id;sensor_type;location;lat;lon;timestamp;P1;durP1;ratioP1;P2;durP2;ratioP2
6145;SDS011;3104;50.348;7.620;2022-09-16T00:00:18;1.60;;;1.50;;
6145;SDS011;3104;50.348;7.620;2022-09-16T00:02:45;6.37;;;1.77;;
6145;SDS011;3104;50.348;7.620;2022-09-16T00:05:10;13.90;;;2.10;;
6145;SDS011;3104;50.348;7.620;2022-09-16T00:07:36;5.70;;;2.07;;
6145;SDS011;3104;50.348;7.620;2022-09-16T00:10:03;2.13;;;1.47;;
6145;SDS011;3104;50.348;7.620;2022-09-16T00:12:29;4.10;;;1.70;;
6145;SDS011;3104;50.348;7.620;2022-09-16T00:14:55;2.13;;;1.23;;
6145;SDS011;3104;50.348;7.620;2022-09-16T00:17:21;1.87;;;1.63;;
6145;SDS011;3104;50.348;7.620;2022-09-16T00:19:46;3.17;;;1.40;;
6145;SDS011;3104;50.348;7.620;2022-09-16T00:22:13;3.30;;;1.60;;
6145;SDS011;3104;50.348;7.620;2022-09-16T00:24:39;1.93;;;1.57;;
6145;SDS011;3104;50.348;7.620;2022-09-16T00:27:04;8.53;;;1.90;;
6145;SDS011;3104;50.348;7.620;2022-09-16T00:29:30;2.93;;;2.00;;
6145;SDS011;3104;50.348;7.620;2022-09-16T00:31:55;3.00;;;1.80;;
6145;SDS011;3104;50.348;7.620;2022-09-16T00:34:21;5.10;;;1.93;;
6145;SDS011;3104;50.348;7.620;2022-09-16T00:36:47;3.70;;;2.00;;
6145;SDS011;3104;50.348;7.620;2022-09-16T00:39:12;3.63;;;1.63;;
6145;SDS011;3104;50.348;7.620;2022-09-16T00:41:38;3.67;;;1.80;;
6145;SDS011;3104;50.348;7.620;2022-09-16T00:44:05;5.63;;;1.80;;
6145;SDS011;3104;50.348;7.620;2022-09-16T00:46:50;3.50;;;1.87;;
6145;SDS011;3104;50.348;7.620;2022-09-16T00:49:19;2.70;;;1.40;;
6145;SDS011;3104;50.348;7.620;2022-09-16T00:51:48;3.67;;;2.00;;
6145;SDS011;3104;50.348;7.620;2022-09-16T00:54:17;2.27;;;1.57;;
6145;SDS011;3104;50.348;7.620;2022-09-16T00:56:45;3.23;;;1.87;;
6145;SDS011;3104;50.348;7.620;2022-09-16T00:59:16;3.70;;;2.10;;
6145;SDS011;3104;50.348;7.620;2022-09-16T01:01:48;3.90;;;2.43;;
6145;SDS011;3104;50.348;7.620;2022-09-16T01:04:21;3.40;;;1.70;;
6145;SDS011;3104;50.348;7.620;2022-09-16T01:06:51;3.00;;;1.40;;
6145;SDS011;3104;50.348;7.620;2022-09-16T01:09:18;2.70;;;1.60;;
6145;SDS011;3104;50.348;7.620;2022-09-16T01:11:46;2.97;;;1.60;;
6145;SDS011;3104;50.348;7.620;2022-09-16T01:14:11;2.80;;;1.60;;
6145;SDS011;3104;50.348;7.620;2022-09-16T01:17:00;3.13;;;1.70;;
6145;SDS011;3104;50.348;7.620;2022-09-16T01:37:23;3.60;;;2.10;;
6145;SDS011;3104;50.348;7.620;2022-09-16T01:40:08;2.40;;;1.67;;
6145;SDS011;3104;50.348;7.620;2022-09-16T01:45:21;3.43;;;1.50;;
6145;SDS011;3104;50.348;7.620;2022-09-16T01:48:00;5.70;;;2.70;;
6145;SDS011;3104;50.348;7.620;2022-09-16T01:59:43;3.60;;;2.23;;
6145;SDS011;3104;50.348;7.620;2022-09-16T02:02:31;5.90;;;2.27;;
6145;SDS011;3104;50.348;7.620;2022-09-16T02:04:58;5.43;;;1.80;;
6145;SDS011;3104;50.348;7.620;2022-09-16T02:07:30;3.93;;;2.07;;
6145;SDS011;3104;50.348;7.620;2022-09-16T02:10:00;3.97;;;1.83;;
6145;SDS011;3104;50.348;7.620;2022-09-16T02:12:33;8.27;;;2.17;;
6145;SDS011;3104;50.348;7.620;2022-09-16T02:15:04;6.03;;;1.80;;
6145;SDS011;3104;50.348;7.620;2022-09-16T02:17:35;2.80;;;1.97;;
6145;SDS011;3104;50.348;7.620;2022-09-16T02:20:07;8.60;;;2.27;;
6145;SDS011;3104;50.348;7.620;2022-09-16T02:22:39;3.40;;;1.80;;
6145;SDS011;3104;50.348;7.620;2022-09-16T02:25:07;2.37;;;1.57;;
6145;SDS011;3104;50.348;7.620;2022-09-16T02:27:36;8.63;;;2.37;;
6145;SDS011;3104;50.348;7.620;2022-09-16T02:30:07;2.77;;;1.90;;
6145;SDS011;3104;50.348;7.620;2022-09-16T02:32:36;5.90;;;1.87;;
6145;SDS011;3104;50.348;7.620;2022-09-16T02:35:06;6.20;;;1.83;;
6145;SDS011;3104;50.348;7.620;2022-09-16T02:37:36;2.37;;;1.53;;
6145;SDS011;3104;50.348;7.620;2022-09-16T02:40:09;5.47;;;2.43;;
6145;SDS011;3104;50.348;7.620;2022-09-16T02:42:39;3.77;;;1.57;;
6145;SDS011;3104;50.348;7.620;2022-09-16T02:45:04;7.90;;;1.77;;
6145;SDS011;3104;50.348;7.620;2022-09-16T02:47:34;3.60;;;2.00;;
6145;SDS011;3104;50.348;7.620;2022-09-16T02:50:20;7.13;;;1.87;;
6145;SDS011;3104;50.348;7.620;2022-09-16T02:52:58;3.33;;;1.87;;
6145;SDS011;3104;50.348;7.620;2022-09-16T02:58:26;2.20;;;1.90;;
6145;SDS011;3104;50.348;7.620;2022-09-16T03:00:52;6.67;;;2.93;;
6145;SDS011;3104;50.348;7.620;2022-09-16T03:03:19;4.83;;;2.60;;
6145;SDS011;3104;50.348;7.620;2022-09-16T03:08:33;2.27;;;1.47;;
6145;SDS011;3104;50.348;7.620;2022-09-16T03:16:30;2.87;;;1.87;;
6145;SDS011;3104;50.348;7.620;2022-09-16T03:19:05;2.80;;;1.77;;
6145;SDS011;3104;50.348;7.620;2022-09-16T03:21:41;4.47;;;1.70;;
6145;SDS011;3104;50.348;7.620;2022-09-16T03:24:24;5.30;;;1.70;;
6145;SDS011;3104;50.348;7.620;2022-09-16T03:27:18;2.37;;;1.90;;
6145;SDS011;3104;50.348;7.620;2022-09-16T03:29:51;2.60;;;1.70;;
6145;SDS011;3104;50.348;7.620;2022-09-16T03:32:23;6.53;;;2.50;;
6145;SDS011;3104;50.348;7.620;2022-09-16T03:34:56;3.90;;;2.00;;
6145;SDS011;3104;50.348;7.620;2022-09-16T03:37:24;2.27;;;1.40;;
6145;SDS011;3104;50.348;7.620;2022-09-16T03:39:54;2.20;;;1.60;;
6145;SDS011;3104;50.348;7.620;2022-09-16T03:42:23;1.90;;;1.80;;
6145;SDS011;3104;50.348;7.620;2022-09-16T03:44:49;2.43;;;1.60;;
6145;SDS011;3104;50.348;7.620;2022-09-16T03:47:15;3.20;;;3.00;;
6145;SDS011;3104;50.348;7.620;2022-09-16T03:49:41;3.67;;;2.73;;
6145;SDS011;3104;50.348;7.620;2022-09-16T03:52:07;3.33;;;1.83;;
6145;SDS011;3104;50.348;7.620;2022-09-16T03:54:34;3.13;;;2.20;;
6145;SDS011;3104;50.348;7.620;2022-09-16T03:57:00;4.73;;;2.27;;
6145;SDS011;3104;50.348;7.620;2022-09-16T03:59:26;2.40;;;1.97;;
6145;SDS011;3104;50.348;7.620;2022-09-16T04:01:53;4.17;;;1.90;;
6145;SDS011;3104;50.348;7.620;2022-09-16T04:04:18;3.83;;;2.20;;
6145;SDS011;3104;50.348;7.620;2022-09-16T04:06:44;4.03;;;1.70;;
6145;SDS011;3104;50.348;7.620;2022-09-16T04:09:10;2.93;;;1.57;;
6145;SDS011;3104;50.348;7.620;2022-09-16T04:11:37;2.40;;;1.70;;
6145;SDS011;3104;50.348;7.620;2022-09-16T04:14:03;4.00;;;1.60;;
6145;SDS011;3104;50.348;7.620;2022-09-16T04:16:29;3.47;;;2.50;;
6145;SDS011;3104;50.348;7.620;2022-09-16T04:18:55;3.30;;;2.17;;
6145;SDS011;3104;50.348;7.620;2022-09-16T04:21:20;2.97;;;2.13;;
6145;SDS011;3104;50.348;7.620;2022-09-16T04:23:47;5.23;;;2.30;;
6145;SDS011;3104;50.348;7.620;2022-09-16T04:26:13;5.03;;;2.40;;
6145;SDS011;3104;50.348;7.620;2022-09-16T04:28:39;3.43;;;2.00;;
6145;SDS011;3104;50.348;7.620;2022-09-16T04:31:14;3.37;;;2.13;;
6145;SDS011;3104;50.348;7.620;2022-09-16T04:33:40;2.93;;;2.23;;
6145;SDS011;3104;50.348;7.620;2022-09-16T04:38:36;3.57;;;1.87;;
6145;SDS011;3104;50.348;7.620;2022-09-16T04:41:03;6.30;;;2.20;;
6145;SDS011;3104;50.348;7.620;2022-09-16T04:43:31;3.70;;;2.23;;
6145;SDS011;3104;50.348;7.620;2022-09-16T04:45:57;6.17;;;3.03;;
6145;SDS011;3104;50.348;7.620;2022-09-16T04:48:23;4.43;;;2.03;;
6145;SDS011;3104;50.348;7.620;2022-09-16T04:50:50;3.90;;;2.10;;
6145;SDS011;3104;50.348;7.620;2022-09-16T04:53:16;3.93;;;2.37;;
6145;SDS011;3104;50.348;7.620;2022-09-16T04:55:43;4.50;;;2.10;;
6145;SDS011;3104;50.348;7.620;2022-09-16T04:58:09;4.80;;;2.30;;
6145;SDS011;3104;50.348;7.620;2022-09-16T05:00:34;4.97;;;2.23;;
6145;SDS011;3104;50.348;7.620;2022-09-16T05:03:00;3.13;;;2.27;;
6145;SDS011;3104;50.348;7.620;2022-09-16T05:05:26;3.03;;;1.97;;
6145;SDS011;3104;50.348;7.620;2022-09-16T05:07:51;2.83;;;2.20;;
6145;SDS011;3104;50.348;7.620;2022-09-16T05:10:17;4.50;;;2.30;;
6145;SDS011;3104;50.348;7.620;2022-09-16T05:12:43;5.70;;;2.70;;
6145;SDS011;3104;50.348;7.620;2022-09-16T05:15:08;4.10;;;1.60;;
6145;SDS011;3104;50.348;7.620;2022-09-16T05:17:34;4.50;;;2.43;;
6145;SDS011;3104;50.348;7.620;2022-09-16T05:19:59;5.07;;;2.10;;
6145;SDS011;3104;50.348;7.620;2022-09-16T05:22:25;4.50;;;1.90;;
6145;SDS011;3104;50.348;7.620;2022-09-16T05:24:51;1.97;;;1.83;;
6145;SDS011;3104;50.348;7.620;2022-09-16T05:27:17;4.37;;;2.43;;
6145;SDS011;3104;50.348;7.620;2022-09-16T05:29:42;3.30;;;2.00;;
6145;SDS011;3104;50.348;7.620;2022-09-16T05:32:08;7.67;;;2.40;;
6145;SDS011;3104;50.348;7.620;2022-09-16T05:34:33;3.50;;;1.80;;
6145;SDS011;3104;50.348;7.620;2022-09-16T05:37:00;2.47;;;1.67;;
6145;SDS011;3104;50.348;7.620;2022-09-16T05:39:26;6.37;;;2.53;;
6145;SDS011;3104;50.348;7.620;2022-09-16T05:41:56;6.30;;;2.40;;
6145;SDS011;3104;50.348;7.620;2022-09-16T05:44:24;4.03;;;1.80;;
6145;SDS011;3104;50.348;7.620;2022-09-16T05:46:50;5.83;;;1.87;;
6145;SDS011;3104;50.348;7.620;2022-09-16T05:49:16;2.67;;;2.10;;
6145;SDS011;3104;50.348;7.620;2022-09-16T05:51:45;4.13;;;2.37;;
6145;SDS011;3104;50.348;7.620;2022-09-16T05:54:11;6.87;;;2.67;;
6145;SDS011;3104;50.348;7.620;2022-09-16T05:56:37;4.53;;;2.20;;
6145;SDS011;3104;50.348;7.620;2022-09-16T05:59:03;3.57;;;2.20;;
6145;SDS011;3104;50.348;7.620;2022-09-16T06:01:30;4.63;;;2.40;;
6145;SDS011;3104;50.348;7.620;2022-09-16T06:04:01;2.80;;;1.90;;
6145;SDS011;3104;50.348;7.620;2022-09-16T06:06:33;2.90;;;1.90;;
6145;SDS011;3104;50.348;7.620;2022-09-16T06:09:03;4.20;;;1.90;;
6145;SDS011;3104;50.348;7.620;2022-09-16T06:11:31;3.50;;;1.97;;
6145;SDS011;3104;50.348;7.620;2022-09-16T06:14:01;9.47;;;2.83;;
6145;SDS011;3104;50.348;7.620;2022-09-16T06:16:27;2.70;;;2.30;;
6145;SDS011;3104;50.348;7.620;2022-09-16T06:18:56;3.30;;;2.00;;
6145;SDS011;3104;50.348;7.620;2022-09-16T06:21:27;3.60;;;2.13;;
6145;SDS011;3104;50.348;7.620;2022-09-16T06:23:53;2.63;;;1.77;;
6145;SDS011;3104;50.348;7.620;2022-09-16T06:26:20;4.77;;;1.87;;
6145;SDS011;3104;50.348;7.620;2022-09-16T06:28:48;3.67;;;3.20;;
6145;SDS011;3104;50.348;7.620;2022-09-16T06:33:44;9.90;;;1.83;;
6145;SDS011;3104;50.348;7.620;2022-09-16T06:36:11;4.80;;;1.60;;
6145;SDS011;3104;50.348;7.620;2022-09-16T06:38:39;7.17;;;1.70;;
6145;SDS011;3104;50.348;7.620;2022-09-16T06:41:06;2.47;;;1.30;;
6145;SDS011;3104;50.348;7.620;2022-09-16T06:43:33;1.93;;;1.70;;
6145;SDS011;3104;50.348;7.620;2022-09-16T06:46:00;2.43;;;2.03;;
6145;SDS011;3104;50.348;7.620;2022-09-16T06:48:27;3.40;;;1.70;;
6145;SDS011;3104;50.348;7.620;2022-09-16T06:50:56;2.80;;;1.67;;
6145;SDS011;3104;50.348;7.620;2022-09-16T06:53:23;2.60;;;1.77;;
6145;SDS011;3104;50.348;7.620;2022-09-16T06:55:49;3.10;;;1.80;;
6145;SDS011;3104;50.348;7.620;2022-09-16T06:58:15;4.10;;;1.40;;
6145;SDS011;3104;50.348;7.620;2022-09-16T07:00:40;2.03;;;1.50;;
6145;SDS011;3104;50.348;7.620;2022-09-16T07:03:06;2.87;;;1.37;;
6145;SDS011;3104;50.348;7.620;2022-09-16T07:05:31;2.03;;;1.40;;
6145;SDS011;3104;50.348;7.620;2022-09-16T07:07:57;2.30;;;1.53;;
6145;SDS011;3104;50.348;7.620;2022-09-16T07:10:23;4.80;;;1.90;;
6145;SDS011;3104;50.348;7.620;2022-09-16T07:12:49;1.80;;;1.70;;
6145;SDS011;3104;50.348;7.620;2022-09-16T07:15:14;3.33;;;1.80;;
6145;SDS011;3104;50.348;7.620;2022-09-16T07:17:40;3.90;;;1.70;;
6145;SDS011;3104;50.348;7.620;2022-09-16T07:20:05;5.27;;;1.57;;
6145;SDS011;3104;50.348;7.620;2022-09-16T07:22:31;7.63;;;1.20;;
6145;SDS011;3104;50.348;7.620;2022-09-16T07:24:57;2.57;;;1.33;;
6145;SDS011;3104;50.348;7.620;2022-09-16T07:27:22;4.23;;;1.37;;
6145;SDS011;3104;50.348;7.620;2022-09-16T07:29:48;4.17;;;1.30;;
6145;SDS011;3104;50.348;7.620;2022-09-16T07:32:14;4.40;;;1.40;;
6145;SDS011;3104;50.348;7.620;2022-09-16T07:34:39;2.13;;;1.37;;
6145;SDS011;3104;50.348;7.620;2022-09-16T07:37:05;3.43;;;1.30;;
6145;SDS011;3104;50.348;7.620;2022-09-16T07:39:30;2.60;;;1.43;;
6145;SDS011;3104;50.348;7.620;2022-09-16T07:41:56;4.40;;;1.70;;
6145;SDS011;3104;50.348;7.620;2022-09-16T07:44:22;3.50;;;2.50;;
6145;SDS011;3104;50.348;7.620;2022-09-16T07:46:48;4.07;;;1.50;;
6145;SDS011;3104;50.348;7.620;2022-09-16T07:49:15;7.90;;;1.60;;
6145;SDS011;3104;50.348;7.620;2022-09-16T07:51:41;5.03;;;1.00;;
6145;SDS011;3104;50.348;7.620;2022-09-16T07:54:08;4.80;;;1.87;;
6145;SDS011;3104;50.348;7.620;2022-09-16T07:56:36;3.43;;;1.60;;
6145;SDS011;3104;50.348;7.620;2022-09-16T07:59:04;3.20;;;1.33;;
6145;SDS011;3104;50.348;7.620;2022-09-16T08:01:31;3.40;;;1.53;;
6145;SDS011;3104;50.348;7.620;2022-09-16T08:03:58;1.43;;;1.27;;
6145;SDS011;3104;50.348;7.620;2022-09-16T08:06:26;2.57;;;1.37;;
6145;SDS011;3104;50.348;7.620;2022-09-16T08:08:54;5.43;;;1.63;;
6145;SDS011;3104;50.348;7.620;2022-09-16T08:11:22;2.13;;;1.13;;
6145;SDS011;3104;50.348;7.620;2022-09-16T08:13:48;3.53;;;1.20;;
6145;SDS011;3104;50.348;7.620;2022-09-16T08:16:16;1.70;;;1.43;;
6145;SDS011;3104;50.348;7.620;2022-09-16T08:18:43;3.20;;;1.73;;
6145;SDS011;3104;50.348;7.620;2022-09-16T08:21:11;4.20;;;1.37;;
6145;SDS011;3104;50.348;7.620;2022-09-16T08:23:41;2.97;;;1.40;;
6145;SDS011;3104;50.348;7.620;2022-09-16T08:26:07;5.50;;;1.83;;
6145;SDS011;3104;50.348;7.620;2022-09-16T08:28:35;4.23;;;1.60;;
6145;SDS011;3104;50.348;7.620;2022-09-16T08:31:02;4.93;;;1.80;;
6145;SDS011;3104;50.348;7.620;2022-09-16T08:33:28;4.63;;;1.63;;
6145;SDS011;3104;50.348;7.620;2022-09-16T08:36:27;2.07;;;1.70;;
6145;SDS011;3104;50.348;7.620;2022-09-16T08:38:47;2.93;;;1.43;;
6145;SDS011;3104;50.348;7.620;2022-09-16T08:43:42;2.70;;;1.67;;
6145;SDS011;3104;50.348;7.620;2022-09-16T08:49:25;4.33;;;1.20;;
6145;SDS011;3104;50.348;7.620;2022-09-16T08:52:02;1.70;;;0.93;;
6145;SDS011;3104;50.348;7.620;2022-09-16T08:54:41;0.97;;;0.97;;
6145;SDS011;3104;50.348;7.620;2022-09-16T08:57:17;1.40;;;1.30;;
6145;SDS011;3104;50.348;7.620;2022-09-16T09:05:52;3.30;;;1.10;;
6145;SDS011;3104;50.348;7.620;2022-09-16T09:22:09;1.70;;;1.60;;
6145;SDS011;3104;50.348;7.620;2022-09-16T09:25:25;1.60;;;1.50;;
6145;SDS011;3104;50.348;7.620;2022-09-16T09:42:30;1.70;;;1.13;;
6145;SDS011;3104;50.348;7.620;2022-09-16T09:47:43;1.50;;;0.97;;
6145;SDS011;3104;50.348;7.620;2022-09-16T09:50:18;1.67;;;1.03;;
6145;SDS011;3104;50.348;7.620;2022-09-16T09:55:35;1.03;;;0.93;;
6145;SDS011;3104;50.348;7.620;2022-09-16T10:00:58;2.50;;;1.10;;
6145;SDS011;3104;50.348;7.620;2022-09-16T10:03:25;2.17;;;1.27;;
6145;SDS011;3104;50.348;7.620;2022-09-16T10:05:52;1.90;;;1.10;;
6145;SDS011;3104;50.348;7.620;2022-09-16T10:08:22;1.03;;;1.00;;
6145;SDS011;3104;50.348;7.620;2022-09-16T10:11:16;1.47;;;1.10;;
6145;SDS011;3104;50.348;7.620;2022-09-16T10:13:48;1.60;;;1.20;;
6145;SDS011;3104;50.348;7.620;2022-09-16T10:16:19;1.17;;;1.07;;
6145;SDS011;3104;50.348;7.620;2022-09-16T10:18:57;1.37;;;1.20;;
6145;SDS011;3104;50.348;7.620;2022-09-16T10:21:43;1.67;;;0.93;;
6145;SDS011;3104;50.348;7.620;2022-09-16T10:27:01;1.53;;;1.10;;
6145;SDS011;3104;50.348;7.620;2022-09-16T10:29:41;0.90;;;0.90;;
6145;SDS011;3104;50.348;7.620;2022-09-16T10:32:07;1.20;;;1.00;;
6145;SDS011;3104;50.348;7.620;2022-09-16T10:34:39;2.60;;;1.10;;
6145;SDS011;3104;50.348;7.620;2022-09-16T10:39:36;2.90;;;0.97;;
6145;SDS011;3104;50.348;7.620;2022-09-16T10:42:14;1.00;;;0.70;;
6145;SDS011;3104;50.348;7.620;2022-09-16T10:44:49;1.90;;;1.00;;
6145;SDS011;3104;50.348;7.620;2022-09-16T10:47:21;1.30;;;1.10;;
6145;SDS011;3104;50.348;7.620;2022-09-16T10:49:59;3.43;;;1.10;;
6145;SDS011;3104;50.348;7.620;2022-09-16T10:52:30;4.40;;;0.97;;
6145;SDS011;3104;50.348;7.620;2022-09-16T10:54:56;1.97;;;1.80;;
6145;SDS011;3104;50.348;7.620;2022-09-16T10:57:45;3.17;;;1.10;;
6145;SDS011;3104;50.348;7.620;2022-09-16T11:00:12;1.30;;;1.00;;
6145;SDS011;3104;50.348;7.620;2022-09-16T11:05:54;1.07;;;0.83;;
6145;SDS011;3104;50.348;7.620;2022-09-16T11:11:12;0.90;;;0.90;;
6145;SDS011;3104;50.348;7.620;2022-09-16T11:14:13;2.17;;;1.00;;
6145;SDS011;3104;50.348;7.620;2022-09-16T11:17:10;1.83;;;1.57;;
6145;SDS011;3104;50.348;7.620;2022-09-16T11:22:37;0.87;;;0.80;;
6145;SDS011;3104;50.348;7.620;2022-09-16T11:25:21;1.63;;;1.37;;
6145;SDS011;3104;50.348;7.620;2022-09-16T11:31:06;1.53;;;0.80;;
6145;SDS011;3104;50.348;7.620;2022-09-16T11:45:08;1.27;;;0.90;;
6145;SDS011;3104;50.348;7.620;2022-09-16T11:55:37;2.10;;;0.90;;
6145;SDS011;3104;50.348;7.620;2022-09-16T11:58:30;3.23;;;1.00;;
6145;SDS011;3104;50.348;7.620;2022-09-16T12:01:12;3.57;;;0.80;;
6145;SDS011;3104;50.348;7.620;2022-09-16T12:03:54;1.20;;;0.80;;
6145;SDS011;3104;50.348;7.620;2022-09-16T12:06:28;1.97;;;0.90;;
6145;SDS011;3104;50.348;7.620;2022-09-16T12:09:09;3.90;;;1.30;;
6145;SDS011;3104;50.348;7.620;2022-09-16T12:11:44;1.20;;;1.10;;
6145;SDS011;3104;50.348;7.620;2022-09-16T12:14:15;1.43;;;0.97;;
6145;SDS011;3104;50.348;7.620;2022-09-16T12:16:51;1.20;;;0.80;;
6145;SDS011;3104;50.348;7.620;2022-09-16T12:19:22;2.00;;;1.20;;
6145;SDS011;3104;50.348;7.620;2022-09-16T12:21:57;0.97;;;0.80;;
6145;SDS011;3104;50.348;7.620;2022-09-16T12:27:01;2.03;;;1.10;;
6145;SDS011;3104;50.348;7.620;2022-09-16T12:30:05;4.00;;;0.80;;
6145;SDS011;3104;50.348;7.620;2022-09-16T12:32:54;1.60;;;0.90;;
6145;SDS011;3104;50.348;7.620;2022-09-16T12:38:31;1.37;;;1.17;;
6145;SDS011;3104;50.348;7.620;2022-09-16T12:52:14;1.50;;;0.73;;
6145;SDS011;3104;50.348;7.620;2022-09-16T12:58:27;2.57;;;0.90;;
6145;SDS011;3104;50.348;7.620;2022-09-16T13:03:55;2.33;;;1.00;;
6145;SDS011;3104;50.348;7.620;2022-09-16T13:06:27;3.40;;;1.20;;
6145;SDS011;3104;50.348;7.620;2022-09-16T13:08:57;1.77;;;1.30;;
6145;SDS011;3104;50.348;7.620;2022-09-16T13:11:37;1.57;;;1.00;;
6145;SDS011;3104;50.348;7.620;2022-09-16T13:14:04;1.43;;;1.07;;
6145;SDS011;3104;50.348;7.620;2022-09-16T13:16:50;5.50;;;0.90;;
6145;SDS011;3104;50.348;7.620;2022-09-16T13:21:54;1.23;;;1.00;;
6145;SDS011;3104;50.348;7.620;2022-09-16T13:24:38;5.30;;;1.10;;
6145;SDS011;3104;50.348;7.620;2022-09-16T13:27:30;1.53;;;0.90;;
6145;SDS011;3104;50.348;7.620;2022-09-16T13:37:42;1.90;;;1.40;;
6145;SDS011;3104;50.348;7.620;2022-09-16T13:40:18;2.90;;;1.40;;
6145;SDS011;3104;50.348;7.620;2022-09-16T13:45:42;4.10;;;1.10;;
6145;SDS011;3104;50.348;7.620;2022-09-16T13:50:34;2.80;;;1.40;;
6145;SDS011;3104;50.348;7.620;2022-09-16T13:53:17;2.43;;;0.90;;
6145;SDS011;3104;50.348;7.620;2022-09-16T13:55:47;3.07;;;0.80;;
6145;SDS011;3104;50.348;7.620;2022-09-16T13:58:36;2.70;;;0.80;;
6145;SDS011;3104;50.348;7.620;2022-09-16T14:01:12;2.33;;;1.13;;
6145;SDS011;3104;50.348;7.620;2022-09-16T14:06:17;0.97;;;0.97;;
6145;SDS011;3104;50.348;7.620;2022-09-16T14:09:12;0.60;;;0.60;;
6145;SDS011;3104;50.348;7.620;2022-09-16T14:12:03;1.30;;;1.13;;
6145;SDS011;3104;50.348;7.620;2022-09-16T14:14:34;2.60;;;1.07;;
6145;SDS011;3104;50.348;7.620;2022-09-16T14:17:04;1.10;;;1.00;;
6145;SDS011;3104;50.348;7.620;2022-09-16T14:19:38;0.97;;;0.67;;
6145;SDS011;3104;50.348;7.620;2022-09-16T14:24:35;1.37;;;1.00;;
6145;SDS011;3104;50.348;7.620;2022-09-16T14:27:03;0.97;;;0.90;;
6145;SDS011;3104;50.348;7.620;2022-09-16T14:29:29;2.13;;;1.20;;
6145;SDS011;3104;50.348;7.620;2022-09-16T14:31:55;0.90;;;0.90;;
6145;SDS011;3104;50.348;7.620;2022-09-16T14:34:29;1.00;;;1.00;;
6145;SDS011;3104;50.348;7.620;2022-09-16T14:36:59;1.13;;;1.03;;
6145;SDS011;3104;50.348;7.620;2022-09-16T14:39:25;2.20;;;1.27;;
6145;SDS011;3104;50.348;7.620;2022-09-16T14:41:53;2.73;;;1.70;;
6145;SDS011;3104;50.348;7.620;2022-09-16T14:44:28;1.23;;;0.80;;
6145;SDS011;3104;50.348;7.620;2022-09-16T14:50:10;1.03;;;0.80;;
6145;SDS011;3104;50.348;7.620;2022-09-16T14:52:39;0.80;;;0.80;;
6145;SDS011;3104;50.348;7.620;2022-09-16T14:55:17;0.93;;;0.77;;
6145;SDS011;3104;50.348;7.620;2022-09-16T14:57:44;0.70;;;0.70;;
6145;SDS011;3104;50.348;7.620;2022-09-16T15:00:14;0.80;;;0.80;;
6145;SDS011;3104;50.348;7.620;2022-09-16T15:02:51;1.23;;;0.60;;
6145;SDS011;3104;50.348;7.620;2022-09-16T15:05:22;0.70;;;0.70;;
6145;SDS011;3104;50.348;7.620;2022-09-16T15:08:01;1.63;;;0.70;;
6145;SDS011;3104;50.348;7.620;2022-09-16T15:10:28;0.87;;;0.70;;
6145;SDS011;3104;50.348;7.620;2022-09-16T15:12:56;0.90;;;0.70;;
6145;SDS011;3104;50.348;7.620;2022-09-16T15:15:25;0.90;;;0.73;;
6145;SDS011;3104;50.348;7.620;2022-09-16T15:17:54;1.07;;;1.00;;
6145;SDS011;3104;50.348;7.620;2022-09-16T15:20:25;1.00;;;1.00;;
6145;SDS011;3104;50.348;7.620;2022-09-16T15:22:54;1.00;;;1.00;;
6145;SDS011;3104;50.348;7.620;2022-09-16T15:25:22;0.70;;;0.70;;
6145;SDS011;3104;50.348;7.620;2022-09-16T15:27:51;0.77;;;0.77;;
6145;SDS011;3104;50.348;7.620;2022-09-16T15:30:31;0.60;;;0.60;;
6145;SDS011;3104;50.348;7.620;2022-09-16T15:32:57;0.80;;;0.60;;
6145;SDS011;3104;50.348;7.620;2022-09-16T15:35:23;0.80;;;0.80;;
6145;SDS011;3104;50.348;7.620;2022-09-16T15:37:51;0.80;;;0.53;;
6145;SDS011;3104;50.348;7.620;2022-09-16T15:40:20;0.80;;;0.80;;
6145;SDS011;3104;50.348;7.620;2022-09-16T15:43:02;0.70;;;0.70;;
6145;SDS011;3104;50.348;7.620;2022-09-16T15:46:01;0.60;;;0.60;;
6145;SDS011;3104;50.348;7.620;2022-09-16T15:48:30;0.63;;;0.60;;
6145;SDS011;3104;50.348;7.620;2022-09-16T15:50:59;0.80;;;0.80;;
6145;SDS011;3104;50.348;7.620;2022-09-16T16:03:26;0.70;;;0.60;;
6145;SDS011;3104;50.348;7.620;2022-09-16T16:05:54;0.80;;;0.80;;
6145;SDS011;3104;50.348;7.620;2022-09-16T16:11:10;0.60;;;0.60;;
6145;SDS011;3104;50.348;7.620;2022-09-16T16:13:37;0.73;;;0.73;;
6145;SDS011;3104;50.348;7.620;2022-09-16T16:16:03;1.70;;;0.70;;
6145;SDS011;3104;50.348;7.620;2022-09-16T16:18:33;1.17;;;0.77;;
6145;SDS011;3104;50.348;7.620;2022-09-16T16:21:03;0.70;;;0.70;;
6145;SDS011;3104;50.348;7.620;2022-09-16T16:23:31;0.70;;;0.60;;
6145;SDS011;3104;50.348;7.620;2022-09-16T16:25:57;0.60;;;0.60;;
6145;SDS011;3104;50.348;7.620;2022-09-16T16:28:23;0.77;;;0.77;;
6145;SDS011;3104;50.348;7.620;2022-09-16T16:30:48;0.80;;;0.80;;
6145;SDS011;3104;50.348;7.620;2022-09-16T16:33:14;3.27;;;0.73;;
6145;SDS011;3104;50.348;7.620;2022-09-16T16:35:39;0.70;;;0.70;;
6145;SDS011;3104;50.348;7.620;2022-09-16T16:38:05;1.80;;;0.50;;
6145;SDS011;3104;50.348;7.620;2022-09-16T16:40:30;0.70;;;0.70;;
6145;SDS011;3104;50.348;7.620;2022-09-16T16:42:56;4.10;;;1.67;;
6145;SDS011;3104;50.348;7.620;2022-09-16T16:45:21;1.90;;;0.80;;
6145;SDS011;3104;50.348;7.620;2022-09-16T16:47:47;2.43;;;0.77;;
6145;SDS011;3104;50.348;7.620;2022-09-16T16:50:13;1.77;;;0.93;;
6145;SDS011;3104;50.348;7.620;2022-09-16T16:52:38;0.70;;;0.70;;
6145;SDS011;3104;50.348;7.620;2022-09-16T16:55:04;1.33;;;1.23;;
6145;SDS011;3104;50.348;7.620;2022-09-16T16:57:30;1.20;;;1.07;;
6145;SDS011;3104;50.348;7.620;2022-09-16T16:59:56;1.27;;;1.10;;
6145;SDS011;3104;50.348;7.620;2022-09-16T17:02:22;4.53;;;1.27;;
6145;SDS011;3104;50.348;7.620;2022-09-16T17:04:47;1.43;;;0.90;;
6145;SDS011;3104;50.348;7.620;2022-09-16T17:07:13;1.13;;;0.63;;
6145;SDS011;3104;50.348;7.620;2022-09-16T17:09:39;1.10;;;0.93;;
6145;SDS011;3104;50.348;7.620;2022-09-16T17:12:04;1.03;;;0.90;;
6145;SDS011;3104;50.348;7.620;2022-09-16T17:14:30;1.40;;;1.00;;
6145;SDS011;3104;50.348;7.620;2022-09-16T17:16:57;0.90;;;0.90;;
6145;SDS011;3104;50.348;7.620;2022-09-16T17:19:23;1.20;;;1.10;;
6145;SDS011;3104;50.348;7.620;2022-09-16T17:21:50;1.70;;;0.90;;
6145;SDS011;3104;50.348;7.620;2022-09-16T17:24:19;0.73;;;0.70;;
6145;SDS011;3104;50.348;7.620;2022-09-16T17:26:45;1.93;;;0.80;;
6145;SDS011;3104;50.348;7.620;2022-09-16T17:29:11;1.50;;;0.70;;
6145;SDS011;3104;50.348;7.620;2022-09-16T17:31:38;4.77;;;0.93;;
6145;SDS011;3104;50.348;7.620;2022-09-16T17:34:05;0.77;;;0.70;;
6145;SDS011;3104;50.348;7.620;2022-09-16T17:36:35;0.73;;;0.73;;
6145;SDS011;3104;50.348;7.620;2022-09-16T17:39:23;0.70;;;0.70;;
6145;SDS011;3104;50.348;7.620;2022-09-16T17:41:48;1.43;;;0.80;;
6145;SDS011;3104;50.348;7.620;2022-09-16T17:44:15;0.87;;;0.87;;
6145;SDS011;3104;50.348;7.620;2022-09-16T17:46:42;0.77;;;0.70;;
6145;SDS011;3104;50.348;7.620;2022-09-16T17:49:16;1.17;;;0.60;;
6145;SDS011;3104;50.348;7.620;2022-09-16T17:51:44;2.93;;;0.80;;
6145;SDS011;3104;50.348;7.620;2022-09-16T17:54:10;0.50;;;0.50;;
6145;SDS011;3104;50.348;7.620;2022-09-16T17:56:36;4.47;;;0.80;;
6145;SDS011;3104;50.348;7.620;2022-09-16T17:59:01;2.40;;;1.10;;
6145;SDS011;3104;50.348;7.620;2022-09-16T18:01:27;1.80;;;0.73;;
6145;SDS011;3104;50.348;7.620;2022-09-16T18:03:54;1.60;;;0.60;;
6145;SDS011;3104;50.348;7.620;2022-09-16T18:06:23;1.77;;;0.90;;
6145;SDS011;3104;50.348;7.620;2022-09-16T18:08:53;1.13;;;1.00;;
6145;SDS011;3104;50.348;7.620;2022-09-16T18:11:19;1.33;;;1.07;;
6145;SDS011;3104;50.348;7.620;2022-09-16T18:13:45;3.03;;;1.00;;
6145;SDS011;3104;50.348;7.620;2022-09-16T18:16:13;1.10;;;1.00;;
6145;SDS011;3104;50.348;7.620;2022-09-16T18:18:43;1.70;;;1.60;;
6145;SDS011;3104;50.348;7.620;2022-09-16T18:21:12;1.10;;;1.00;;
6145;SDS011;3104;50.348;7.620;2022-09-16T18:23:39;0.83;;;0.70;;
6145;SDS011;3104;50.348;7.620;2022-09-16T18:26:09;3.73;;;0.70;;
6145;SDS011;3104;50.348;7.620;2022-09-16T18:28:37;0.60;;;0.60;;
6145;SDS011;3104;50.348;7.620;2022-09-16T18:31:06;2.60;;;1.07;;
6145;SDS011;3104;50.348;7.620;2022-09-16T18:33:33;1.57;;;1.10;;
6145;SDS011;3104;50.348;7.620;2022-09-16T18:36:00;0.60;;;0.60;;
6145;SDS011;3104;50.348;7.620;2022-09-16T18:38:28;1.33;;;1.00;;
6145;SDS011;3104;50.348;7.620;2022-09-16T18:43:51;0.60;;;0.60;;
6145;SDS011;3104;50.348;7.620;2022-09-16T18:46:19;0.60;;;0.60;;